Merna, Nebraska
Current Conditions -  °F | °C
As of 4:53 AM on Friday 24 Oct 2014 (Local Time) from KBBW Reporting Station
Clear Clear  
Wind Chill: 13°   Ceiling: Unl
Heat Index: 13°   Visibility: 10mi
Dew Point:   Wind: 7mph
Humidity: 77%   Direction: 260°W
Pressure: 29.94"   Gusts: NA
Location:  41.48°N, 99.76°W
Report Text: KBBW 240953Z AUTO 26006KT 10SM CLR 13/09 A2994 RMK AO2 SLP125 T01330094
Loading
Personal Weather Stations






























Interactive Weather Map
Tropical Storm Tracking
New forecast layout! Learn more

10-Day Weather Forecast

Advertisements
Track Severe Weather on mobile